Time;durP1;ratioP1;P1;durP2;ratioP2;P2;SDS_P1;SDS_P2;PMS_P1;PMS_P2;Temp;Humidity;BMP_temperature;BMP_pressure;BME280_temperature;BME280_humidity;BME280_pressure;Samples;Min_cycle;Max_cycle;Signal;HPM_P1;HPM_P2
2023/06/20 00:01:42;;;;;;;31.50;21.40;;;;;;;14.99;88.98;99071.36;269295;1267;22626;-85
2023/06/20 00:07:43;;;;;;;21.70;18.70;;;;;;;14.88;89.41;99066.29;271744;1266;22102;-85
2023/06/20 00:13:46;;;;;;;29.30;19.50;;;;;;;14.73;89.36;99061.09;271280;1264;23006;-86
2023/06/20 00:19:48;;;;;;;27.40;22.20;;;;;;;14.57;89.65;99049.73;272029;1266;22579;-85
2023/06/20 00:25:49;;;;;;;31.30;22.60;;;;;;;14.43;90.23;99044.75;272359;1267;22436;-86
2023/06/20 00:31:50;;;;;;;20.10;16.80;;;;;;;14.38;91.09;99049.19;272687;1266;23628;-87
2023/06/20 00:37:54;;;;;;;20.50;16.80;;;;;;;14.40;91.76;99055.87;271951;1266;23161;-87
2023/06/20 00:43:55;;;;;;;29.30;21.40;;;;;;;14.45;92.32;99056.63;270857;1266;22528;-85
2023/06/20 00:49:56;;;;;;;28.40;19.80;;;;;;;14.40;92.44;99049.11;269861;1257;22589;-86
2023/06/20 00:55:59;;;;;;;21.90;19.10;;;;;;;14.41;93.09;99050.90;273457;1267;22327;-87
2023/06/20 01:02:00;;;;;;;22.70;19.60;;;;;;;14.44;93.21;99053.48;272044;1253;22555;-87
2023/06/20 01:08:13;;;;;;;23.20;18.90;;;;;;;14.46;93.40;99058.28;271623;1266;22584;-87
2023/06/20 01:14:16;;;;;;;24.00;19.50;;;;;;;14.38;93.34;99064.29;273669;1267;23525;-87
2023/06/20 01:20:27;;;;;;;23.60;18.60;;;;;;;14.27;93.58;99067.46;273234;1266;22245;-88
2023/06/20 01:27:10;;;;;;;22.00;17.50;;;;;;;14.28;94.12;99067.62;273514;1266;22329;-87
2023/06/20 01:33:15;;;;;;;24.70;18.90;;;;;;;14.28;94.04;99067.23;271707;1275;22759;-88
2023/06/20 01:39:26;;;;;;;21.70;17.30;;;;;;;14.15;93.75;99069.27;273445;1267;22150;-87
2023/06/20 01:45:28;;;;;;;25.40;19.10;;;;;;;13.96;93.70;99061.36;273426;1267;22414;-87
2023/06/20 01:51:33;;;;;;;26.00;21.40;;;;;;;13.82;94.14;99058.63;273582;1256;22189;-86
2023/06/20 01:57:35;;;;;;;27.30;20.80;;;;;;;13.73;94.32;99058.09;272965;1266;23286;-86
2023/06/20 02:03:37;;;;;;;25.60;19.10;;;;;;;13.58;94.56;99056.44;270376;1267;22529;-87
2023/06/20 02:09:46;;;;;;;24.60;19.90;;;;;;;13.48;94.77;99054.00;271255;1266;22639;-87
2023/06/20 02:15:52;;;;;;;24.30;18.60;;;;;;;13.38;95.05;99051.02;270452;1263;23353;-87
2023/06/20 02:21:56;;;;;;;26.70;20.90;;;;;;;13.30;95.46;99056.97;269651;1267;23640;-87
2023/06/20 02:27:58;;;;;;;20.40;16.80;;;;;;;13.24;95.93;99058.77;271196;1267;22528;-87
2023/06/20 02:34:02;;;;;;;29.40;20.80;;;;;;;13.20;96.09;99055.54;270399;1267;22527;-86
2023/06/20 02:40:06;;;;;;;22.70;19.70;;;;;;;13.12;96.19;99053.25;270146;1267;23937;-87
2023/06/20 02:46:26;;;;;;;26.20;18.00;;;;;;;13.06;96.64;99054.41;269705;1266;23400;-87
2023/06/20 02:52:45;;;;;;;24.30;18.50;;;;;;;12.98;96.93;99060.02;270397;1266;23187;-87
2023/06/20 02:58:52;;;;;;;19.20;15.00;;;;;;;13.00;97.60;99067.04;272494;1267;22981;-87
2023/06/20 03:04:56;;;;;;;25.60;17.60;;;;;;;13.11;97.65;99066.59;273843;1257;22274;-86
2023/06/20 03:11:23;;;;;;;24.30;19.50;;;;;;;13.14;97.75;99062.05;271544;1267;23260;-87
2023/06/20 03:17:31;;;;;;;23.30;17.70;;;;;;;13.19;98.45;99060.65;269661;1267;22496;-86
2023/06/20 03:23:41;;;;;;;24.00;16.90;;;;;;;13.31;98.76;99056.27;269841;1267;22301;-86
2023/06/20 03:29:45;;;;;;;23.50;19.40;;;;;;;13.34;98.52;99056.89;270255;1259;22534;-87
2023/06/20 03:35:51;;;;;;;24.90;19.50;;;;;;;13.29;98.68;99061.21;271185;1267;22685;-87
2023/06/20 03:41:55;;;;;;;24.20;19.00;;;;;;;13.30;99.12;99067.57;270408;1267;24233;-87
2023/06/20 03:55:56;;;;;;;27.00;19.60;;;;;;;13.41;99.97;99074.49;272635;1269;22217;-88
2023/06/20 04:02:02;;;;;;;27.50;20.80;;;;;;;13.55;100.00;99079.84;272467;1269;22644;-86
2023/06/20 04:08:08;;;;;;;26.50;19.00;;;;;;;13.71;100.00;99082.91;270060;1269;22549;-87
2023/06/20 04:14:10;;;;;;;24.80;19.90;;;;;;;13.89;100.00;99073.48;271756;1269;22508;-86
2023/06/20 04:52:27;;;;;;;23.10;19.30;;;;;;;15.33;100.00;99083.29;267748;1278;26664;-86
2023/06/20 05:14:15;;;;;;;30.40;21.20;;;;;;;16.19;100.00;99091.27;270846;1274;22272;-87
2023/06/20 05:20:16;;;;;;;28.80;21.60;;;;;;;16.49;100.00;99090.35;271581;1266;22216;-87
2023/06/20 05:27:09;;;;;;;22.20;17.70;;;;;;;16.78;100.00;99094.04;272399;1267;22544;-87
2023/06/20 05:40:26;;;;;;;27.80;21.70;;;;;;;17.52;100.00;99093.36;270980;1267;23413;-85
2023/06/20 05:46:48;;;;;;;27.60;19.10;;;;;;;17.82;99.97;99092.50;270799;1263;22900;-86
2023/06/20 05:52:49;;;;;;;22.50;17.50;;;;;;;18.11;98.94;99094.77;272550;1267;22940;-85
2023/06/20 05:58:53;;;;;;;20.20;16.60;;;;;;;18.38;98.21;99095.33;272611;1260;22434;-85
2023/06/20 06:05:20;;;;;;;21.90;15.00;;;;;;;18.63;96.73;99093.83;270614;1266;22696;-85
2023/06/20 06:11:21;;;;;;;21.30;13.70;;;;;;;18.92;95.90;99097.85;273156;1266;22584;-85
2023/06/20 06:17:26;;;;;;;21.20;13.10;;;;;;;19.17;95.01;99097.71;273499;1266;22583;-85
2023/06/20 06:23:28;;;;;;;17.30;12.80;;;;;;;19.46;94.00;99098.66;270748;1267;23091;-86
2023/06/20 06:29:36;;;;;;;17.10;11.40;;;;;;;19.74;92.88;99101.09;271553;1267;22542;-85
2023/06/20 06:35:45;;;;;;;16.20;11.60;;;;;;;20.03;91.32;99100.45;272206;1266;24224;-86
2023/06/20 06:41:49;;;;;;;18.50;11.40;;;;;;;20.33;90.06;99103.75;270940;1266;22537;-86
2023/06/20 06:47:51;;;;;;;18.20;12.30;;;;;;;20.65;89.40;99109.39;270920;1266;22325;-85
2023/06/20 06:53:52;;;;;;;18.60;10.90;;;;;;;21.09;88.48;99109.58;273456;1266;22954;-86
2023/06/20 06:59:54;;;;;;;12.80;9.90;;;;;;;21.56;86.50;99110.92;271689;1253;22572;-85
2023/06/20 07:06:03;;;;;;;13.80;9.90;;;;;;;22.15;86.34;99102.26;272171;1267;22543;-86
2023/06/20 07:12:06;;;;;;;11.50;8.50;;;;;;;22.94;84.33;99106.14;271786;1269;22618;-85
2023/06/20 07:18:12;;;;;;;9.80;7.80;;;;;;;23.64;83.28;99110.05;272006;1260;22641;-86
2023/06/20 07:24:13;;;;;;;8.60;7.50;;;;;;;24.27;81.22;99112.63;270655;1267;25265;-86
2023/06/20 07:30:28;;;;;;;8.30;6.90;;;;;;;24.86;78.53;99118.92;273029;1266;22549;-86
2023/06/20 07:36:29;;;;;;;6.70;5.90;;;;;;;25.32;76.47;99122.14;272368;1267;23111;-86
2023/06/20 07:42:30;;;;;;;10.90;6.80;;;;;;;25.59;74.23;99117.66;272045;1260;22575;-86
2023/06/20 07:48:39;;;;;;;9.30;6.10;;;;;;;25.87;72.55;99112.83;271395;1266;23503;-85
2023/06/20 07:54:40;;;;;;;9.00;6.60;;;;;;;26.08;68.23;99114.89;270992;1260;22399;-87
2023/06/20 08:00:43;;;;;;;8.00;6.30;;;;;;;26.14;66.23;99115.09;272489;1267;22549;-86
2023/06/20 08:06:44;;;;;;;7.00;6.30;;;;;;;26.31;66.08;99116.00;272807;1267;22617;-86
2023/06/20 08:12:45;;;;;;;6.70;5.90;;;;;;;26.50;65.35;99113.20;273755;1267;22490;-85
2023/06/20 08:18:52;;;;;;;7.70;6.20;;;;;;;26.64;63.59;99112.34;273806;1267;22343;-86
2023/06/20 08:24:54;;;;;;;10.10;6.60;;;;;;;26.88;62.60;99110.06;273805;1267;23167;-86
2023/06/20 08:30:59;;;;;;;9.80;5.50;;;;;;;27.13;60.42;99104.61;271005;1267;22528;-85
2023/06/20 08:36:59;;;;;;;4.90;4.40;;;;;;;27.36;59.01;99109.11;272651;1261;22215;-86
2023/06/20 08:43:00;;;;;;;6.10;5.10;;;;;;;27.51;56.84;99118.02;272687;1267;22527;-84
2023/06/20 08:49:02;;;;;;;6.00;4.90;;;;;;;27.46;54.09;99117.27;272121;1260;23529;-86
2023/06/20 08:55:04;;;;;;;6.80;4.30;;;;;;;27.49;52.31;99114.66;271559;1267;22560;-86
2023/06/20 09:01:08;;;;;;;8.60;4.50;;;;;;;27.53;51.54;99111.41;270880;1257;22217;-86
2023/06/20 09:07:21;;;;;;;5.70;4.90;;;;;;;27.73;51.06;99108.14;271044;1266;22972;-86
2023/06/20 09:13:28;;;;;;;8.80;5.20;;;;;;;27.79;48.82;99103.02;272252;1265;22635;-86
2023/06/20 09:19:40;;;;;;;8.00;5.50;;;;;;;27.96;49.51;99097.73;272671;1264;22182;-85
2023/06/20 09:25:42;;;;;;;11.40;6.00;;;;;;;28.14;48.45;99090.00;273150;1267;22440;-85
2023/06/20 09:31:49;;;;;;;7.20;5.40;;;;;;;28.27;47.74;99075.79;272401;1267;24278;-85
2023/06/20 09:37:53;;;;;;;7.50;5.50;;;;;;;28.48;46.94;99083.85;273768;1266;22336;-85
2023/06/20 09:43:58;;;;;;;10.10;5.50;;;;;;;28.92;47.13;99084.36;273935;1257;22569;-85
2023/06/20 09:50:00;;;;;;;10.90;6.40;;;;;;;29.36;45.71;99085.83;273056;1257;22563;-84
2023/06/20 09:56:01;;;;;;;7.10;5.70;;;;;;;29.66;45.18;99088.46;273922;1267;23367;-85
2023/06/20 10:02:07;;;;;;;6.40;5.60;;;;;;;29.84;44.69;99087.15;273429;1257;23039;-85
2023/06/20 10:08:12;;;;;;;6.50;5.70;;;;;;;30.00;43.23;99085.81;273104;1267;22232;-85
2023/06/20 10:14:14;;;;;;;7.90;5.90;;;;;;;30.17;43.54;99081.04;273037;1266;23476;-85
2023/06/20 10:20:31;;;;;;;7.00;5.60;;;;;;;30.39;43.10;99077.41;273920;1254;23016;-86
2023/06/20 10:26:33;;;;;;;10.90;5.80;;;;;;;30.61;41.99;99072.77;270138;1261;22567;-84
2023/06/20 10:41:10;;;;;;;7.20;5.50;;;;;;;31.27;41.24;99062.09;270669;1275;25288;-85
2023/06/20 10:47:24;;;;;;;7.40;5.70;;;;;;;31.17;38.96;99051.89;270699;1269;22476;-86
2023/06/20 10:54:33;;;;;;;7.00;5.90;;;;;;;31.14;38.44;99048.91;272983;1269;22248;-86
2023/06/20 11:07:56;;;;;;;5.60;5.00;;;;;;;31.56;38.21;99045.23;273635;1269;22345;-86
2023/06/20 11:14:08;;;;;;;6.00;5.30;;;;;;;31.12;37.82;99045.52;273681;1261;23182;-85
2023/06/20 11:20:10;;;;;;;8.40;5.70;;;;;;;30.64;38.22;99038.12;273599;1269;22347;-85
2023/06/20 11:26:11;;;;;;;7.80;5.60;;;;;;;30.54;38.20;99028.89;273565;1262;22228;-85
2023/06/20 11:32:12;;;;;;;6.50;5.90;;;;;;;30.88;37.90;99022.56;272174;1269;23366;-85
2023/06/20 11:38:15;;;;;;;6.10;5.50;;;;;;;31.42;37.82;99017.81;272461;1269;22271;-85
2023/06/20 11:44:24;;;;;;;6.30;5.50;;;;;;;31.72;37.12;99019.23;273499;1260;22344;-85
2023/06/20 11:50:25;;;;;;;6.00;5.40;;;;;;;31.45;36.87;99014.64;273652;1257;23596;-85
2023/06/20 11:56:36;;;;;;;6.10;5.50;;;;;;;31.46;37.18;99012.67;272875;1266;22473;-86
2023/06/20 12:02:39;;;;;;;6.60;4.80;;;;;;;31.69;37.35;99014.70;273652;1257;22387;-85
2023/06/20 12:08:59;;;;;;;5.70;5.20;;;;;;;31.89;37.29;99016.02;269985;1268;23012;-84
2023/06/20 12:15:14;;;;;;;5.40;4.90;;;;;;;31.79;37.16;99018.39;271663;1268;22468;-85
2023/06/20 12:21:15;;;;;;;5.60;5.10;;;;;;;31.50;37.09;99011.45;270926;1269;23666;-85
2023/06/20 12:27:16;;;;;;;6.80;5.20;;;;;;;31.14;36.08;99000.84;269724;1269;25258;-85
2023/06/20 12:33:18;;;;;;;6.00;5.40;;;;;;;30.84;36.53;98997.55;270868;1269;25595;-86
2023/06/20 12:39:19;;;;;;;5.70;5.20;;;;;;;30.80;36.35;98992.34;272464;1260;22576;-85
2023/06/20 12:45:20;;;;;;;7.00;5.90;;;;;;;30.72;36.61;98988.55;271767;1259;22265;-84
2023/06/20 12:51:24;;;;;;;8.90;5.80;;;;;;;30.65;36.35;98984.34;272195;1267;22421;-86
2023/06/20 12:57:50;;;;;;;8.80;6.30;;;;;;;30.58;36.13;98978.20;272028;1253;23200;-87
2023/06/20 13:03:52;;;;;;;7.90;5.80;;;;;;;30.42;35.12;98977.91;272544;1268;22414;-85
2023/06/20 13:09:53;;;;;;;7.60;5.70;;;;;;;30.27;34.48;98984.69;273180;1257;23549;-85
2023/06/20 13:15:54;;;;;;;6.30;5.60;;;;;;;30.18;34.99;98980.37;273634;1256;22321;-83
2023/06/20 13:21:57;;;;;;;6.90;5.80;;;;;;;30.10;35.42;98971.17;273663;1261;22405;-85
2023/06/20 13:27:58;;;;;;;6.40;5.80;;;;;;;30.11;35.96;98972.50;271568;1269;23208;-86
2023/06/20 13:33:59;;;;;;;6.50;5.90;;;;;;;30.07;37.38;98971.61;273878;1269;22423;-85
2023/06/20 13:55:28;;;;;;;5.70;5.20;;;;;;;29.94;36.37;98958.48;270408;1275;22562;-85
2023/06/20 14:01:30;;;;;;;7.70;6.00;;;;;;;30.14;36.44;98953.63;269179;1269;22551;-85
2023/06/20 14:07:33;;;;;;;6.80;5.40;;;;;;;30.14;36.09;98952.48;270943;1269;22263;-85
2023/06/20 14:14:17;;;;;;;6.70;6.00;;;;;;;29.94;37.33;98959.19;272975;1264;22691;-85
2023/06/20 14:20:25;;;;;;;6.30;5.70;;;;;;;29.65;38.22;98957.65;271405;1266;22421;-85
2023/06/20 14:26:25;;;;;;;6.80;6.10;;;;;;;29.57;38.21;98954.73;270196;1272;22545;-85
2023/06/20 14:32:27;;;;;;;7.10;6.00;;;;;;;29.52;38.61;98947.70;271945;1272;22572;-84
2023/06/20 14:38:47;;;;;;;10.20;5.80;;;;;;;29.55;38.93;98946.49;269561;1256;24246;-84
2023/06/20 14:44:49;;;;;;;7.20;6.20;;;;;;;29.60;39.19;98943.56;269513;1272;22510;-84
2023/06/20 14:50:50;;;;;;;6.80;6.10;;;;;;;29.51;39.10;98944.16;268671;1272;22535;-85
2023/06/20 14:56:54;;;;;;;11.20;6.10;;;;;;;29.24;39.10;98940.40;270424;1272;22570;-85
2023/06/20 15:02:55;;;;;;;8.30;5.90;;;;;;;28.91;39.62;98937.84;271845;1272;23736;-85
2023/06/20 15:08:56;;;;;;;7.40;5.80;;;;;;;28.64;39.84;98932.73;271073;1257;22335;-84
2023/06/20 15:14:57;;;;;;;9.00;5.50;;;;;;;28.47;40.41;98928.11;272414;1269;24280;-85
2023/06/20 15:20:58;;;;;;;7.60;6.70;;;;;;;28.34;40.48;98931.44;269514;1261;22917;-84
2023/06/20 15:26:59;;;;;;;8.10;5.30;;;;;;;28.31;40.67;98927.41;268892;1262;23191;-85
2023/06/20 15:33:24;;;;;;;;;;;;;;;;;;;;;
2023/06/20 15:39:38;;;;;;;6.60;5.50;;;;;;;28.30;40.91;98930.23;272600;1262;22254;-85
2023/06/20 15:45:39;;;;;;;6.60;6.00;;;;;;;28.36;41.10;98927.36;272835;1262;22993;-85
2023/06/20 15:51:40;;;;;;;7.50;5.90;;;;;;;28.40;41.27;98928.29;269134;1267;24210;-86
2023/06/20 16:05:24;;;;;;;7.10;5.50;;;;;;;28.23;41.35;98924.61;269322;1270;23742;-84
2023/06/20 16:11:29;;;;;;;6.60;5.90;;;;;;;28.07;41.44;98922.08;271018;1267;22535;-85
2023/06/20 16:17:30;;;;;;;6.80;5.10;;;;;;;27.94;41.46;98928.34;270699;1267;22524;-85
2023/06/20 16:23:31;;;;;;;7.00;5.70;;;;;;;27.83;41.71;98929.92;271607;1267;160746;-87
2023/06/20 16:29:33;;;;;;;7.60;6.10;;;;;;;27.72;41.99;98930.48;271573;1261;22543;-86
2023/06/20 16:35:34;;;;;;;6.50;5.80;;;;;;;27.59;42.37;98921.89;270043;1257;22523;-85
2023/06/20 16:41:36;;;;;;;7.30;6.60;;;;;;;27.42;42.81;98925.38;270269;1267;23579;-85
2023/06/20 16:47:38;;;;;;;8.30;6.10;;;;;;;27.28;42.95;98928.70;272873;1266;22961;-86
2023/06/20 16:53:41;;;;;;;7.30;6.10;;;;;;;27.19;43.50;98928.08;273777;1267;22269;-85
2023/06/20 16:59:44;;;;;;;8.70;6.30;;;;;;;27.09;43.94;98923.95;273883;1257;22285;-87
2023/06/20 17:05:47;;;;;;;8.70;6.90;;;;;;;27.00;44.33;98920.95;273914;1266;23250;-87
2023/06/20 17:11:57;;;;;;;7.40;6.70;;;;;;;26.91;45.03;98924.38;273073;1267;22265;-86
2023/06/20 17:25:53;;;;;;;9.50;6.80;;;;;;;26.72;46.11;98918.96;271237;1278;23352;-85
2023/06/20 17:31:54;;;;;;;8.40;7.40;;;;;;;26.67;46.45;98922.02;271281;1270;23917;-85
2023/06/20 17:37:55;;;;;;;9.00;6.90;;;;;;;26.60;46.85;98927.66;270315;1259;22748;-85
2023/06/20 18:00:13;;;;;;;9.10;7.20;;;;;;;26.31;48.02;98923.41;271248;1272;22579;-86
2023/06/20 18:06:17;;;;;;;9.70;7.30;;;;;;;26.11;48.54;98925.52;273050;1267;22243;-86
2023/06/20 18:12:19;;;;;;;9.60;7.60;;;;;;;25.90;49.03;98928.04;273327;1266;22345;-85
2023/06/20 18:18:23;;;;;;;10.50;7.90;;;;;;;25.67;49.61;98925.43;273342;1260;22343;-86
2023/06/20 18:24:23;;;;;;;9.10;8.00;;;;;;;25.46;49.95;98923.34;273652;1267;22186;-85
2023/06/20 18:30:27;;;;;;;9.40;7.90;;;;;;;25.30;50.26;98926.06;273467;1261;22330;-86
2023/06/20 18:36:35;;;;;;;10.00;8.30;;;;;;;25.12;50.52;98931.80;273266;1267;22207;-85
2023/06/20 18:42:37;;;;;;;7.80;6.80;;;;;;;24.90;50.82;98937.49;273520;1257;22327;-86
2023/06/20 18:48:38;;;;;;;9.90;8.40;;;;;;;24.75;50.96;98941.20;273047;1263;22451;-86
2023/06/20 18:54:39;;;;;;;10.80;8.20;;;;;;;24.65;51.44;98940.67;273440;1264;22242;-85
2023/06/20 19:00:40;;;;;;;9.70;7.90;;;;;;;24.52;51.79;98946.88;273498;1260;23068;-85
2023/06/20 20:42:00;;;;;;;19.50;15.20;;;;;;;21.76;62.20;98979.05;271110;1289;22445;-86
2023/06/20 20:48:04;;;;;;;20.20;16.10;;;;;;;21.70;61.80;98980.59;270829;1282;22395;-87
2023/06/20 20:54:07;;;;;;;18.80;15.70;;;;;;;21.57;62.21;98981.87;272081;1267;22214;-87
2023/06/20 23:07:52;;;;;;;18.80;15.50;;;;;;;19.14;75.64;98996.38;269339;1277;22367;-86
2023/06/20 23:13:54;;;;;;;19.50;15.20;;;;;;;18.92;75.72;99001.45;273470;1266;22320;-84
2023/06/20 23:19:56;;;;;;;18.90;15.70;;;;;;;18.72;76.50;99003.73;273385;1264;22355;-84
2023/06/20 23:26:02;;;;;;;20.20;15.70;;;;;;;18.60;76.94;99002.46;273568;1260;22224;-84
2023/06/20 23:32:03;;;;;;;18.10;15.50;;;;;;;18.54;77.97;99005.13;272019;1267;22496;-85
2023/06/20 23:38:33;;;;;;;19.70;16.60;;;;;;;18.54;78.28;99007.52;273495;1269;22346;-85
2023/06/20 23:44:35;;;;;;;18.10;15.30;;;;;;;18.44;78.64;99001.48;271808;1270;23818;-86
2023/06/20 23:50:38;;;;;;;17.70;15.80;;;;;;;18.31;78.96;98993.00;272999;1267;22318;-85
2023/06/20 23:56:39;;;;;;;20.70;15.20;;;;;;;18.22;79.74;98996.25;273565;1269;22214;-85
